createdAt,value
2019-01-18T00:00:38.272Z,101204.94
2019-01-18T00:03:07.057Z,101207.45
2019-01-18T00:05:35.668Z,101204.95
2019-01-18T00:08:04.448Z,101207.87
2019-01-18T00:10:33.956Z,101207.91
2019-01-18T00:13:02.569Z,101212.87
2019-01-18T00:15:31.240Z,101217.30
2019-01-18T00:18:00.489Z,101217.72
2019-01-18T00:20:29.199Z,101220.00
2019-01-18T00:22:57.778Z,101212.78
2019-01-18T00:25:26.383Z,101219.07
2019-01-18T00:27:54.998Z,101222.84
2019-01-18T00:30:23.995Z,101235.15
2019-01-18T00:32:52.622Z,101240.05
2019-01-18T00:35:21.298Z,101255.31
2019-01-18T00:37:49.907Z,101251.16
2019-01-18T00:40:22.208Z,101252.47
2019-01-18T00:42:50.798Z,101254.59
2019-01-18T00:45:20.455Z,101258.69
2019-01-18T00:47:49.096Z,101261.63
2019-01-18T00:50:19.398Z,101264.15
2019-01-18T00:52:48.042Z,101269.86
2019-01-18T00:55:16.732Z,101268.94
2019-01-18T00:57:45.647Z,101274.41
2019-01-18T01:00:26.061Z,101279.99
2019-01-18T01:02:55.257Z,101288.85
2019-01-18T01:05:24.355Z,101293.55
2019-01-18T01:07:53.142Z,101291.64
2019-01-18T01:10:22.022Z,101292.05
2019-01-18T01:12:50.677Z,101297.39
2019-01-18T01:15:21.219Z,101309.45
2019-01-18T01:17:49.840Z,101308.84
2019-01-18T01:20:21.148Z,101311.42
2019-01-18T01:22:50.214Z,101311.42
2019-01-18T01:25:19.332Z,101317.48
2019-01-18T01:27:48.575Z,101319.88
2019-01-18T01:30:19.972Z,101318.47
2019-01-18T01:32:48.767Z,101324.83
2019-01-18T01:35:17.759Z,101332.86
2019-01-18T01:37:46.348Z,101345.52
2019-01-18T01:40:17.415Z,101347.77
2019-01-18T01:42:46.125Z,101349.81
2019-01-18T01:45:15.163Z,101358.16
2019-01-18T01:47:43.785Z,101365.33
2019-01-18T01:50:15.153Z,101369.02
2019-01-18T01:52:43.667Z,101372.29
2019-01-18T01:55:12.366Z,101376.17
2019-01-18T01:57:41.002Z,101382.30
2019-01-18T02:00:17.698Z,101388.55
2019-01-18T02:02:46.345Z,101398.98
2019-01-18T02:05:14.947Z,101400.08
2019-01-18T02:07:43.580Z,101406.50
2019-01-18T02:10:14.460Z,101406.09
2019-01-18T02:12:43.072Z,101414.13
2019-01-18T02:15:14.578Z,101408.51
2019-01-18T02:17:43.286Z,101415.58
2019-01-18T02:20:14.703Z,101427.41
2019-01-18T02:22:43.452Z,101426.70
2019-01-18T02:25:12.346Z,101439.68
2019-01-18T02:27:41.537Z,101434.27
2019-01-18T02:30:13.066Z,101438.53
2019-01-18T02:32:41.701Z,101450.39
2019-01-18T02:35:10.545Z,101445.79
2019-01-18T02:37:39.306Z,101456.52
2019-01-18T02:40:10.967Z,101456.75
2019-01-18T02:42:39.624Z,101465.75
2019-01-18T02:45:11.288Z,101458.81
2019-01-18T02:47:39.839Z,101465.20
2019-01-18T02:50:10.574Z,101466.78
2019-01-18T02:52:39.146Z,101470.38
2019-01-18T02:55:09.464Z,101475.48
2019-01-18T02:57:38.097Z,101476.85
2019-01-18T03:00:18.051Z,101480.27
2019-01-18T03:02:46.635Z,101482.20
2019-01-18T03:05:17.562Z,101484.50
2019-01-18T03:07:46.230Z,101489.04
2019-01-18T03:10:17.950Z,101489.04
2019-01-18T03:12:46.572Z,101490.70
2019-01-18T03:15:15.316Z,101497.88
2019-01-18T03:17:43.906Z,101498.83
2019-01-18T03:20:14.522Z,101509.53
2019-01-18T03:22:43.172Z,101506.02
2019-01-18T03:25:14.397Z,101508.36
2019-01-18T03:27:42.927Z,101512.14
2019-01-18T03:30:19.099Z,101513.19
2019-01-18T03:32:44.650Z,101522.70
2019-01-18T03:35:15.483Z,101527.69
2019-01-18T03:37:44.047Z,101528.95
2019-01-18T03:40:15.363Z,101531.01
2019-01-18T03:42:44.387Z,101535.16
2019-01-18T03:45:15.398Z,101546.67
2019-01-18T03:47:44.126Z,101543.84
2019-01-18T03:50:15.728Z,101553.90
2019-01-18T03:52:44.621Z,101552.58
2019-01-18T03:55:13.336Z,101555.35
2019-01-18T03:57:42.015Z,101554.79
2019-01-18T04:00:25.994Z,101558.66
2019-01-18T04:02:49.608Z,101569.50
2019-01-18T04:05:18.417Z,101577.20
2019-01-18T04:07:47.046Z,101582.23
2019-01-18T04:10:20.773Z,101583.48
2019-01-18T04:12:49.386Z,101579.75
2019-01-18T04:15:20.131Z,101585.22
2019-01-18T04:17:48.770Z,101593.69
2019-01-18T04:20:19.046Z,101591.55
2019-01-18T04:22:47.676Z,101595.59
2019-01-18T04:25:20.858Z,101600.86
2019-01-18T04:27:49.437Z,101601.15
2019-01-18T04:30:20.276Z,101606.55
2019-01-18T04:32:48.848Z,101604.76
2019-01-18T04:35:17.423Z,101612.22
2019-01-18T04:37:46.397Z,101626.29
2019-01-18T04:40:25.524Z,101620.30
2019-01-18T04:42:54.234Z,101623.06
2019-01-18T04:45:22.951Z,101619.38
2019-01-18T04:47:51.772Z,101618.71
2019-01-18T04:50:22.843Z,101612.11
2019-01-18T04:52:51.615Z,101609.13
2019-01-18T04:55:20.195Z,101609.00
2019-01-18T04:57:48.731Z,101602.74
2019-01-18T05:00:22.956Z,101611.80
2019-01-18T05:02:51.683Z,101612.03
2019-01-18T05:05:20.230Z,101612.24
2019-01-18T05:07:48.752Z,101620.27
2019-01-18T05:10:19.792Z,101628.92
2019-01-18T05:12:48.420Z,101644.19
2019-01-18T05:15:19.484Z,101641.73
2019-01-18T05:17:48.121Z,101644.32
2019-01-18T05:20:16.713Z,101639.86
2019-01-18T05:22:46.014Z,101642.98
2019-01-18T05:25:14.791Z,101645.56
2019-01-18T05:27:43.386Z,101647.54
2019-01-18T05:30:26.644Z,101651.72
2019-01-18T05:32:55.508Z,101656.06
2019-01-18T05:35:24.122Z,101657.91
2019-01-18T05:37:52.672Z,101665.43
2019-01-18T05:40:24.611Z,101664.36
2019-01-18T05:42:53.190Z,101667.33
2019-01-18T05:45:23.029Z,101669.02
2019-01-18T05:47:52.217Z,101680.34
2019-01-18T05:50:23.472Z,101682.84
2019-01-18T05:52:52.089Z,101692.62
2019-01-18T05:55:20.683Z,101697.15
2019-01-18T05:57:49.512Z,101701.39
2019-01-18T06:00:34.160Z,101701.94
2019-01-18T06:03:02.770Z,101707.20
2019-01-18T06:05:32.538Z,101705.72
2019-01-18T06:08:01.137Z,101711.74
2019-01-18T06:10:30.488Z,101711.54
2019-01-18T06:12:59.112Z,101718.33
2019-01-18T06:15:27.629Z,101722.97
2019-01-18T06:17:56.241Z,101733.31
2019-01-18T06:20:24.910Z,101743.77
2019-01-18T06:22:53.500Z,101743.77
2019-01-18T06:25:22.102Z,101745.77
2019-01-18T06:27:50.628Z,101745.83
2019-01-18T06:30:23.024Z,101750.48
2019-01-18T06:32:51.685Z,101753.34
2019-01-18T06:35:20.310Z,101747.39
2019-01-18T06:37:48.912Z,101746.35
2019-01-18T06:40:19.980Z,101750.48
2019-01-18T06:42:48.477Z,101751.36
2019-01-18T06:45:22.541Z,101751.67
2019-01-18T06:47:51.166Z,101757.31
2019-01-18T06:50:20.556Z,101764.76
2019-01-18T06:52:49.147Z,101770.31
2019-01-18T06:55:17.791Z,101769.52
2019-01-18T06:57:46.567Z,101776.34
2019-01-18T07:00:20.624Z,101786.34
2019-01-18T07:02:49.428Z,101788.55
2019-01-18T07:05:18.119Z,101793.73
2019-01-18T07:07:46.831Z,101797.48
2019-01-18T07:10:20.852Z,101798.20
2019-01-18T07:12:48.112Z,101796.59
2019-01-18T07:15:16.796Z,101789.98
2019-01-18T07:17:45.368Z,101805.56
2019-01-18T07:20:15.787Z,101812.48
2019-01-18T07:22:44.499Z,101809.87
2019-01-18T07:25:15.880Z,101809.87
2019-01-18T07:27:44.515Z,101805.59
2019-01-18T07:30:16.066Z,101809.13
2019-01-18T07:32:44.665Z,101813.43
2019-01-18T07:35:13.366Z,101814.66
2019-01-18T07:37:42.065Z,101814.00
2019-01-18T07:40:11.945Z,101812.77
2019-01-18T07:42:40.894Z,101816.67
2019-01-18T07:45:13.370Z,101819.29
2019-01-18T07:47:41.990Z,101819.31
2019-01-18T07:50:12.862Z,101819.39
2019-01-18T07:52:41.449Z,101817.39
2019-01-18T07:55:10.664Z,101821.44
2019-01-18T07:57:39.259Z,101816.10
2019-01-18T08:00:16.587Z,101825.16
2019-01-18T08:02:45.451Z,101825.73
2019-01-18T08:05:14.030Z,101835.97
2019-01-18T08:07:42.644Z,101842.34
2019-01-18T08:10:14.271Z,101853.03
2019-01-18T08:12:42.964Z,101854.27
2019-01-18T08:15:14.491Z,101857.31
2019-01-18T08:17:43.111Z,101857.31
2019-01-18T08:20:14.092Z,101863.14
2019-01-18T08:22:43.086Z,101861.63
2019-01-18T08:25:13.335Z,101853.87
2019-01-18T08:27:41.932Z,101865.27
2019-01-18T08:30:16.218Z,101863.13
2019-01-18T08:32:44.835Z,101867.37
2019-01-18T08:35:15.522Z,101872.52
2019-01-18T08:37:44.152Z,101874.09
2019-01-18T08:40:15.375Z,101875.09
2019-01-18T08:42:44.086Z,101873.05
2019-01-18T08:45:24.963Z,101872.33
2019-01-18T08:47:55.412Z,101874.63
2019-01-18T08:50:24.060Z,101876.64
2019-01-18T08:52:52.652Z,101880.23
2019-01-18T08:55:21.387Z,101883.11
2019-01-18T08:57:49.969Z,101884.20
2019-01-18T09:00:24.494Z,101890.64
2019-01-18T09:02:53.149Z,101871.67
2019-01-18T09:05:23.956Z,101880.56
2019-01-18T09:07:52.570Z,101883.59
2019-01-18T09:10:32.769Z,101891.84
2019-01-18T09:13:01.362Z,101894.22
2019-01-18T09:15:29.977Z,101895.64
2019-01-18T09:17:58.660Z,101905.20
2019-01-18T09:20:29.120Z,101901.58
2019-01-18T09:22:57.808Z,101905.80
2019-01-18T09:25:26.419Z,101911.30
2019-01-18T09:27:55.023Z,101914.27
2019-01-18T09:30:26.376Z,101920.06
2019-01-18T09:32:55.165Z,101918.37
2019-01-18T09:35:25.165Z,101926.45
2019-01-18T09:37:54.757Z,101921.61
2019-01-18T09:40:25.969Z,101924.42
2019-01-18T09:42:54.600Z,101933.88
2019-01-18T09:45:23.225Z,101930.05
2019-01-18T09:47:51.824Z,101930.11
2019-01-18T09:50:25.960Z,101934.79
2019-01-18T09:52:54.562Z,101943.70
2019-01-18T09:55:23.189Z,101938.39
2019-01-18T09:57:51.789Z,101945.02
2019-01-18T10:00:26.238Z,101949.45
2019-01-18T10:02:54.931Z,101950.88
2019-01-18T10:05:23.532Z,101956.79
2019-01-18T10:07:52.161Z,101953.20
2019-01-18T10:10:22.497Z,101956.35
2019-01-18T10:12:51.200Z,101958.59
2019-01-18T10:15:22.487Z,101963.64
2019-01-18T10:17:51.114Z,101965.34
2019-01-18T10:20:20.246Z,101963.95
2019-01-18T10:22:50.351Z,101968.39
2019-01-18T10:25:19.554Z,101968.27
2019-01-18T10:27:48.314Z,101970.30
2019-01-18T10:30:19.530Z,101969.48
2019-01-18T10:32:48.129Z,101963.89
2019-01-18T10:35:17.157Z,101973.36
2019-01-18T10:37:45.777Z,101974.73
2019-01-18T10:40:15.903Z,101977.33
2019-01-18T10:42:45.269Z,101977.47
2019-01-18T10:45:15.241Z,101981.27
2019-01-18T10:47:44.077Z,101983.49
2019-01-18T10:50:18.778Z,101982.58
2019-01-18T10:52:49.720Z,101983.72
2019-01-18T10:55:18.512Z,101986.41
2019-01-18T10:57:47.130Z,101976.48
2019-01-18T11:00:19.389Z,101979.41
2019-01-18T11:02:48.019Z,101983.02
2019-01-18T11:05:17.209Z,101978.45
2019-01-18T11:07:45.836Z,101978.84
2019-01-18T11:10:16.404Z,101976.83
2019-01-18T11:12:45.016Z,101971.46
2019-01-18T11:15:16.227Z,101962.34
2019-01-18T11:17:44.855Z,101966.41
2019-01-18T11:20:16.618Z,101968.00
2019-01-18T11:22:45.136Z,101959.55
2019-01-18T11:25:14.554Z,101958.84
2019-01-18T11:27:44.239Z,101956.63
2019-01-18T11:30:17.261Z,101948.42
2019-01-18T11:32:46.831Z,101942.02
2019-01-18T11:35:16.749Z,101936.97
2019-01-18T11:37:45.390Z,101941.03
2019-01-18T11:40:16.906Z,101941.11
2019-01-18T11:42:45.504Z,101939.47
2019-01-18T11:45:14.942Z,101938.27
2019-01-18T11:47:44.542Z,101941.64
2019-01-18T11:50:15.702Z,101933.89
2019-01-18T11:52:44.623Z,101941.05
2019-01-18T11:55:13.131Z,101939.04
2019-01-18T11:57:41.775Z,101932.20
2019-01-18T12:00:18.620Z,101934.13
2019-01-18T12:02:47.220Z,101931.05
2019-01-18T12:05:15.909Z,101928.33
2019-01-18T12:07:44.802Z,101930.52
2019-01-18T12:10:19.160Z,101918.51
2019-01-18T12:12:47.845Z,101925.88
2019-01-18T12:15:16.543Z,101920.12
2019-01-18T12:17:45.145Z,101921.77
2019-01-18T12:20:16.626Z,101921.04
2019-01-18T12:22:45.335Z,101919.38
2019-01-18T12:25:14.035Z,101922.02
2019-01-18T12:27:42.656Z,101916.05
2019-01-18T12:30:25.771Z,101918.16
2019-01-18T12:32:54.399Z,101924.28
2019-01-18T12:35:23.086Z,101918.28
2019-01-18T12:37:51.758Z,101921.75
2019-01-18T12:40:20.423Z,101916.86
2019-01-18T12:42:49.010Z,101909.27
2019-01-18T12:45:19.856Z,101912.01
2019-01-18T12:47:48.523Z,101914.70
2019-01-18T12:50:23.129Z,101906.96
2019-01-18T12:52:51.800Z,101896.56
2019-01-18T12:55:20.465Z,101897.53
2019-01-18T12:57:49.104Z,101905.77
2019-01-18T13:00:20.699Z,101896.99
2019-01-18T13:02:49.370Z,101897.72
2019-01-18T13:05:20.926Z,101905.48
2019-01-18T13:07:49.880Z,101894.64
2019-01-18T13:10:18.630Z,101898.03
2019-01-18T13:12:47.688Z,101888.15
2019-01-18T13:15:28.422Z,101892.04
2019-01-18T13:17:56.983Z,101892.46
2019-01-18T13:20:25.637Z,101886.38
2019-01-18T13:22:54.434Z,101885.12
2019-01-18T13:25:23.045Z,101888.00
2019-01-18T13:27:51.611Z,101883.30
2019-01-18T13:30:20.434Z,101885.68
2019-01-18T13:32:49.043Z,101881.67
2019-01-18T13:35:17.642Z,101886.16
2019-01-18T13:37:46.280Z,101878.75
2019-01-18T13:40:20.629Z,101875.37
2019-01-18T13:42:49.239Z,101882.17
2019-01-18T13:45:17.808Z,101881.26
2019-01-18T13:47:47.155Z,101886.09
2019-01-18T13:50:20.288Z,101890.22
2019-01-18T13:52:48.898Z,101887.45
2019-01-18T13:55:20.431Z,101895.56
2019-01-18T13:57:49.009Z,101894.86
2019-01-18T14:00:17.709Z,101894.16
2019-01-18T14:02:48.531Z,101894.23
2019-01-18T14:05:16.709Z,101893.60
2019-01-18T14:07:45.284Z,101896.84
2019-01-18T14:10:22.571Z,101900.64
2019-01-18T14:12:51.258Z,101894.80
2019-01-18T14:15:21.498Z,101899.11
2019-01-18T14:17:50.081Z,101897.72
2019-01-18T14:20:21.107Z,101897.23
2019-01-18T14:22:50.064Z,101903.73
2019-01-18T14:25:18.703Z,101895.39
2019-01-18T14:27:47.370Z,101898.77
2019-01-18T14:30:25.763Z,101895.18
2019-01-18T14:32:55.749Z,101891.86
2019-01-18T14:35:24.790Z,101895.80
2019-01-18T14:37:53.583Z,101894.83
2019-01-18T14:40:22.368Z,101898.20
2019-01-18T14:42:52.814Z,101891.61
2019-01-18T14:45:30.700Z,101898.19
2019-01-18T14:47:59.290Z,101895.08
2019-01-18T14:50:27.921Z,101899.25
2019-01-18T14:52:56.619Z,101901.75
2019-01-18T14:55:25.425Z,101901.76
2019-01-18T14:57:54.218Z,101900.72
2019-01-18T15:00:33.520Z,101899.52
2019-01-18T15:03:03.607Z,101897.98
2019-01-18T15:05:33.085Z,101892.84
2019-01-18T15:08:01.758Z,101888.44
2019-01-18T15:10:30.396Z,101891.44
2019-01-18T15:13:01.719Z,101902.98
2019-01-18T15:15:30.363Z,101899.45
2019-01-18T15:17:58.952Z,101894.16
2019-01-18T15:20:32.217Z,101900.20
2019-01-18T15:23:01.367Z,101902.48
2019-01-18T15:25:29.974Z,101908.89
2019-01-18T15:27:58.783Z,101909.38
2019-01-18T15:30:29.391Z,101909.38
2019-01-18T15:32:58.184Z,101906.09
2019-01-18T15:35:29.269Z,101900.23
2019-01-18T15:37:57.968Z,101907.56
2019-01-18T15:40:28.679Z,101909.47
2019-01-18T15:42:59.084Z,101904.83
2019-01-18T15:45:27.728Z,101903.71
2019-01-18T15:47:56.303Z,101901.33
2019-01-18T15:50:27.911Z,101911.63
2019-01-18T15:52:56.629Z,101903.66
2019-01-18T15:55:25.779Z,101904.57
2019-01-18T15:57:54.379Z,101902.64
2019-01-18T16:00:28.827Z,101904.39
2019-01-18T16:02:57.696Z,101902.50
2019-01-18T16:05:26.330Z,101900.45
2019-01-18T16:07:54.969Z,101897.64
2019-01-18T16:10:25.095Z,101893.02
2019-01-18T16:12:54.688Z,101893.61
2019-01-18T16:15:29.725Z,101892.25
2019-01-18T16:17:58.389Z,101888.66
2019-01-18T16:20:26.985Z,101886.61
2019-01-18T16:22:55.609Z,101893.06
2019-01-18T16:25:27.081Z,101890.52
2019-01-18T16:27:55.711Z,101890.01
2019-01-18T16:30:25.930Z,101884.87
2019-01-18T16:32:56.740Z,101890.19
2019-01-18T16:35:25.353Z,101889.25
2019-01-18T16:37:53.929Z,101888.23
2019-01-18T16:40:30.942Z,101896.84
2019-01-18T16:43:05.051Z,101896.84
2019-01-18T16:45:33.599Z,101896.28
2019-01-18T16:48:02.216Z,101900.59
2019-01-18T16:50:30.896Z,101893.82
2019-01-18T16:52:59.493Z,101899.94
2019-01-18T16:55:28.857Z,101894.36
2019-01-18T16:57:57.423Z,101889.86
2019-01-18T17:00:34.789Z,101889.00
2019-01-18T17:03:03.427Z,101895.34
2019-01-18T17:05:32.030Z,101896.97
2019-01-18T17:08:00.641Z,101901.78
2019-01-18T17:10:29.248Z,101896.72
2019-01-18T17:12:57.818Z,101897.27
2019-01-18T17:15:26.437Z,101890.64
2019-01-18T17:17:55.084Z,101891.66
2019-01-18T17:20:32.032Z,101890.37
2019-01-18T17:23:00.663Z,101886.20
2019-01-18T17:25:29.267Z,101892.88
2019-01-18T17:27:57.868Z,101893.06
2019-01-18T17:30:26.479Z,101893.89
2019-01-18T17:32:55.068Z,101892.08
2019-01-18T17:35:35.671Z,101896.24
2019-01-18T17:38:25.442Z,101890.63
2019-01-18T17:41:13.452Z,101893.33
2019-01-18T17:44:07.777Z,101896.30
2019-01-18T17:46:51.804Z,101896.22
2019-01-18T17:49:48.998Z,101897.14
2019-01-18T17:52:29.131Z,101894.00
2019-01-18T17:55:00.695Z,101891.51
2019-01-18T17:57:34.771Z,101891.34
2019-01-18T18:00:18.243Z,101893.15
2019-01-18T18:02:52.263Z,101885.84
2019-01-18T18:05:44.990Z,101888.19
2019-01-18T18:08:31.303Z,101888.53
2019-01-18T18:11:05.887Z,101891.94
2019-01-18T18:13:43.939Z,101885.88
2019-01-18T18:16:21.533Z,101893.01
2019-01-18T18:19:09.563Z,101891.61
2019-01-18T18:21:57.640Z,101894.62
2019-01-18T18:24:44.123Z,101896.50
2019-01-18T18:27:15.673Z,101895.16
2019-01-18T18:29:47.269Z,101895.27
2019-01-18T18:32:36.408Z,101894.90
2019-01-18T18:35:37.903Z,101895.95
2019-01-18T18:38:28.764Z,101894.87
2019-01-18T18:41:05.998Z,101895.27
2019-01-18T18:43:40.444Z,101897.70
2019-01-18T18:46:37.701Z,101898.59
2019-01-18T18:49:12.238Z,101890.63
2019-01-18T18:52:02.791Z,101895.86
2019-01-18T18:54:52.098Z,101891.09
2019-01-18T18:57:44.030Z,101892.27
2019-01-18T19:00:21.539Z,101896.23
2019-01-18T19:03:05.592Z,101891.95
2019-01-18T19:05:40.126Z,101891.81
2019-01-18T19:08:23.217Z,101892.07
2019-01-18T19:10:57.349Z,101891.68
2019-01-18T19:13:31.884Z,101884.90
2019-01-18T19:16:23.904Z,101882.20
2019-01-18T19:19:01.463Z,101883.59
2019-01-18T19:21:47.953Z,101877.78
2019-01-18T19:24:28.846Z,101878.34
2019-01-18T19:27:09.018Z,101881.59
2019-01-18T19:29:52.623Z,101879.66
2019-01-18T19:32:27.289Z,101878.53
2019-01-18T19:35:01.805Z,101881.45
2019-01-18T19:37:54.769Z,101874.78
2019-01-18T19:40:32.398Z,101883.30
2019-01-18T19:43:13.112Z,101876.55
2019-01-18T19:45:53.328Z,101875.00
2019-01-18T19:48:24.872Z,101877.25
2019-01-18T19:51:08.147Z,101875.05
2019-01-18T19:53:45.914Z,101878.48
2019-01-18T19:56:41.934Z,101873.55
2019-01-18T19:59:13.576Z,101871.17
2019-01-18T20:02:01.743Z,101876.69
2019-01-18T20:04:33.363Z,101873.98
2019-01-18T20:07:07.607Z,101875.55
2019-01-18T20:09:39.157Z,101868.19
2019-01-18T20:12:27.378Z,101878.00
2019-01-18T20:15:01.381Z,101874.32
2019-01-18T20:17:35.785Z,101876.06
2019-01-18T20:20:37.517Z,101878.40
2019-01-18T20:23:11.829Z,101866.48
2019-01-18T20:25:46.936Z,101872.00
2019-01-18T20:28:30.307Z,101871.57
2019-01-18T20:31:10.548Z,101865.99
2019-01-18T20:34:01.577Z,101866.61
2019-01-18T20:36:42.042Z,101866.30
2019-01-18T20:39:34.467Z,101871.34
2019-01-18T20:42:14.737Z,101867.63
2019-01-18T20:44:55.472Z,101859.55
2019-01-18T20:47:38.843Z,101863.33
2019-01-18T20:50:28.343Z,101868.23
2019-01-18T20:53:08.981Z,101863.88
2019-01-18T20:55:46.398Z,101859.34
2019-01-18T20:58:35.845Z,101859.59
2019-01-18T21:01:22.300Z,101860.58
2019-01-18T21:04:02.534Z,101857.20
2019-01-18T21:06:58.397Z,101856.61
2019-01-18T21:09:39.144Z,101860.94
2019-01-18T21:12:28.676Z,101863.17
2019-01-18T21:15:06.173Z,101863.76
2019-01-18T21:18:06.460Z,101861.34
2019-01-18T21:20:54.751Z,101859.92
2019-01-18T21:23:41.510Z,101864.56
2019-01-18T21:26:29.388Z,101863.20
2019-01-18T21:29:09.873Z,101864.98
2019-01-18T21:31:41.395Z,101865.50
2019-01-18T21:34:33.294Z,101863.41
2019-01-18T21:37:19.566Z,101860.20
2019-01-18T21:40:16.436Z,101865.11
2019-01-18T21:42:50.952Z,101863.11
2019-01-18T21:45:48.195Z,101863.94
2019-01-18T21:48:22.137Z,101861.25
2019-01-18T21:51:08.608Z,101860.95
2019-01-18T21:53:55.207Z,101863.89
2019-01-18T21:56:49.256Z,101864.26
2019-01-18T21:59:44.490Z,101861.75
2019-01-18T22:02:25.032Z,101868.59
2019-01-18T22:05:11.177Z,101861.95
2019-01-18T22:07:51.556Z,101866.11
2019-01-18T22:10:40.991Z,101862.00
2019-01-18T22:13:28.776Z,101857.37
2019-01-18T22:16:28.679Z,101865.41
2019-01-18T22:19:00.177Z,101856.87
2019-01-18T22:21:37.695Z,101857.81
2019-01-18T22:24:34.702Z,101857.09
2019-01-18T22:27:14.967Z,101866.29
2019-01-18T22:30:13.343Z,101867.30
2019-01-18T22:32:47.590Z,101865.25
2019-01-18T22:35:19.111Z,101868.55
2019-01-18T22:37:53.237Z,101866.81
2019-01-18T22:40:36.586Z,101873.58
2019-01-18T22:43:13.973Z,101872.39
2019-01-18T22:45:51.403Z,101870.41
2019-01-18T22:48:28.695Z,101867.58
2019-01-18T22:51:15.079Z,101876.41
2019-01-18T22:54:10.293Z,101871.38
2019-01-18T22:56:59.477Z,101871.84
2019-01-18T22:59:56.337Z,101867.13
2019-01-18T23:02:33.715Z,101868.77
2019-01-18T23:05:11.293Z,101870.96
2019-01-18T23:07:57.804Z,101867.30
2019-01-18T23:10:44.266Z,101869.75
2019-01-18T23:13:21.707Z,101870.73
2019-01-18T23:16:24.764Z,101870.72
2019-01-18T23:18:56.341Z,101867.06
2019-01-18T23:21:39.945Z,101866.66
2019-01-18T23:24:23.021Z,101858.80
2019-01-18T23:26:57.407Z,101860.84
2019-01-18T23:29:28.912Z,101863.25
2019-01-18T23:32:12.625Z,101862.26
2019-01-18T23:35:03.124Z,101851.41
2019-01-18T23:37:32.569Z,101855.53
2019-01-18T23:40:20.362Z,101856.44
2019-01-18T23:43:14.967Z,101861.00
2019-01-18T23:46:01.721Z,101863.36
2019-01-18T23:48:33.216Z,101860.00
2019-01-18T23:51:19.057Z,101862.05
2019-01-18T23:53:53.767Z,101857.93
2019-01-18T23:56:34.398Z,101850.05
2019-01-18T23:59:11.553Z,101850.14
